createdAt,value
2018-06-21T00:00:31.949Z,78.94
2018-06-21T00:03:02.928Z,79.28
2018-06-21T00:05:34.157Z,79.49
2018-06-21T00:08:05.386Z,79.61
2018-06-21T00:10:36.676Z,79.72
2018-06-21T00:13:07.918Z,79.57
2018-06-21T00:15:39.996Z,79.69
2018-06-21T00:18:11.809Z,79.43
2018-06-21T00:20:43.098Z,79.52
2018-06-21T00:23:14.250Z,79.12
2018-06-21T00:25:45.372Z,78.90
2018-06-21T00:28:16.450Z,79.02
2018-06-21T00:30:47.649Z,78.81
2018-06-21T00:33:19.280Z,78.57
2018-06-21T00:35:51.370Z,78.65
2018-06-21T00:38:22.588Z,79.42
2018-06-21T00:40:53.710Z,79.54
2018-06-21T00:43:24.874Z,80.58
2018-06-21T00:45:56.152Z,81.26
2018-06-21T00:48:27.218Z,81.14
2018-06-21T00:50:58.878Z,81.35
2018-06-21T00:53:31.037Z,81.39
2018-06-21T00:56:16.792Z,81.98
2018-06-21T00:58:48.662Z,82.53
2018-06-21T01:01:20.152Z,82.83
2018-06-21T01:03:52.178Z,82.71
2018-06-21T01:06:23.127Z,82.49
2018-06-21T01:08:54.197Z,82.56
2018-06-21T01:11:25.439Z,82.43
2018-06-21T01:13:57.181Z,82.95
2018-06-21T01:16:28.558Z,83.24
2018-06-21T01:19:00.063Z,82.99
2018-06-21T01:21:31.959Z,82.83
2018-06-21T01:24:03.080Z,83.21
2018-06-21T01:26:33.647Z,83.33
2018-06-21T01:29:04.875Z,83.33
2018-06-21T01:31:36.056Z,82.88
2018-06-21T01:34:07.112Z,83.38
2018-06-21T01:36:38.592Z,83.42
2018-06-21T01:39:10.451Z,83.72
2018-06-21T01:41:41.729Z,83.90
2018-06-21T01:44:13.744Z,83.80
2018-06-21T01:46:45.420Z,84.23
2018-06-21T01:49:16.602Z,83.59
2018-06-21T01:51:48.652Z,82.01
2018-06-21T01:54:19.763Z,81.17
2018-06-21T01:56:50.903Z,80.95
2018-06-21T01:59:22.179Z,80.89
2018-06-21T02:01:54.432Z,80.66
2018-06-21T02:04:25.973Z,81.00
2018-06-21T02:06:57.849Z,80.45
2018-06-21T02:09:29.051Z,80.12
2018-06-21T02:12:00.341Z,80.37
2018-06-21T02:14:31.280Z,81.04
2018-06-21T02:17:02.786Z,81.13
2018-06-21T02:19:35.179Z,80.52
2018-06-21T02:22:06.287Z,80.80
2018-06-21T02:24:37.442Z,80.42
2018-06-21T02:27:08.603Z,80.72
2018-06-21T02:29:41.522Z,80.74
2018-06-21T02:32:13.064Z,80.59
2018-06-21T02:34:45.802Z,81.18
2018-06-21T02:37:17.716Z,81.11
2018-06-21T02:39:48.694Z,81.54
2018-06-21T02:42:19.821Z,81.34
2018-06-21T02:44:50.987Z,81.95
2018-06-21T02:47:22.455Z,82.44
2018-06-21T02:49:53.715Z,82.66
2018-06-21T02:52:25.077Z,82.67
2018-06-21T02:54:56.234Z,82.43
2018-06-21T02:57:27.442Z,82.38
2018-06-21T02:59:59.704Z,82.54
2018-06-21T03:02:30.898Z,81.90
2018-06-21T03:05:02.099Z,82.10
2018-06-21T03:07:33.259Z,82.18
2018-06-21T03:10:05.223Z,81.92
2018-06-21T03:12:36.234Z,81.56
2018-06-21T03:15:07.253Z,82.18
2018-06-21T03:17:39.098Z,82.29
2018-06-21T03:20:09.971Z,82.17
2018-06-21T03:22:40.664Z,82.04
2018-06-21T03:25:12.281Z,82.04
2018-06-21T03:27:44.408Z,82.27
2018-06-21T03:30:15.343Z,82.14
2018-06-21T03:32:46.998Z,82.53
2018-06-21T03:35:18.015Z,82.19
2018-06-21T03:37:49.163Z,82.17
2018-06-21T03:40:20.523Z,82.33
2018-06-21T03:42:51.989Z,82.07
2018-06-21T03:45:23.120Z,82.04
2018-06-21T03:47:53.572Z,82.10
2018-06-21T03:50:24.355Z,81.61
2018-06-21T03:52:56.166Z,81.60
2018-06-21T03:55:27.401Z,81.20
2018-06-21T03:57:58.543Z,80.57
2018-06-21T04:00:30.407Z,80.37
2018-06-21T04:03:02.446Z,79.53
2018-06-21T04:05:33.691Z,79.18
2018-06-21T04:08:06.000Z,79.23
2018-06-21T04:10:37.231Z,79.02
2018-06-21T04:13:08.640Z,77.91
2018-06-21T04:15:40.101Z,77.92
2018-06-21T04:18:11.320Z,79.15
2018-06-21T04:20:42.753Z,79.61
2018-06-21T04:23:15.460Z,79.97
2018-06-21T04:25:47.053Z,79.90
2018-06-21T04:28:17.949Z,79.66
2018-06-21T04:30:49.312Z,79.58
2018-06-21T04:33:20.561Z,79.83
2018-06-21T04:35:51.765Z,79.50
2018-06-21T04:38:22.805Z,79.73
2018-06-21T04:40:55.379Z,79.32
2018-06-21T04:43:26.347Z,78.85
2018-06-21T04:45:57.444Z,78.63
2018-06-21T04:48:28.950Z,77.03
2018-06-21T04:51:00.098Z,76.79
2018-06-21T04:53:31.255Z,76.02
2018-06-21T04:56:02.482Z,76.39
2018-06-21T04:58:33.893Z,76.76
2018-06-21T05:01:04.886Z,76.52
2018-06-21T05:03:36.259Z,76.68
2018-06-21T05:06:07.396Z,76.04
2018-06-21T05:08:40.032Z,76.49
2018-06-21T05:11:11.333Z,76.85
2018-06-21T05:13:42.684Z,76.62
2018-06-21T05:16:13.854Z,76.48
2018-06-21T05:18:45.218Z,76.34
2018-06-21T05:21:16.465Z,75.40
2018-06-21T05:23:48.796Z,74.73
2018-06-21T05:26:19.544Z,73.36
2018-06-21T05:28:50.702Z,74.14
2018-06-21T05:31:22.155Z,73.30
2018-06-21T05:33:54.106Z,72.01
2018-06-21T05:36:25.157Z,71.49
2018-06-21T05:38:57.147Z,71.93
2018-06-21T05:41:28.896Z,70.99
2018-06-21T05:43:59.997Z,70.78
2018-06-21T05:46:31.388Z,71.37
2018-06-21T05:49:01.935Z,70.95
2018-06-21T05:51:33.013Z,70.75
2018-06-21T05:54:04.278Z,70.72
2018-06-21T05:56:35.753Z,68.47
2018-06-21T05:59:07.267Z,68.11
2018-06-21T06:01:38.788Z,68.24
2018-06-21T06:04:10.893Z,68.66
2018-06-21T06:06:42.318Z,68.61
2018-06-21T06:09:14.187Z,68.53
2018-06-21T06:11:46.002Z,67.64
2018-06-21T06:14:17.182Z,66.22
2018-06-21T06:16:47.977Z,64.72
2018-06-21T06:19:19.140Z,64.65
2018-06-21T06:21:51.162Z,64.65
2018-06-21T06:24:22.694Z,61.72
2018-06-21T06:26:55.015Z,59.31
2018-06-21T06:29:28.196Z,56.16
2018-06-21T06:32:00.311Z,54.29
2018-06-21T06:34:31.440Z,52.49
2018-06-21T06:37:02.829Z,53.70
2018-06-21T06:39:33.760Z,56.74
2018-06-21T06:42:05.084Z,55.42
2018-06-21T06:44:37.316Z,52.51
2018-06-21T06:47:09.880Z,51.06
2018-06-21T06:49:41.266Z,49.91
2018-06-21T06:52:14.117Z,48.74
2018-06-21T06:54:45.358Z,49.20
2018-06-21T06:57:17.779Z,47.58
2018-06-21T06:59:49.345Z,47.60
2018-06-21T07:02:21.662Z,46.89
2018-06-21T07:04:52.306Z,46.54
2018-06-21T07:07:23.304Z,46.77
2018-06-21T07:09:56.187Z,46.64
2018-06-21T07:12:27.732Z,45.32
2018-06-21T07:14:59.724Z,44.15
2018-06-21T07:17:30.993Z,44.38
2018-06-21T07:20:03.237Z,44.24
2018-06-21T07:22:34.667Z,48.63
2018-06-21T07:25:06.374Z,45.25
2018-06-21T07:27:38.817Z,43.89
2018-06-21T07:30:10.074Z,43.96
2018-06-21T07:32:41.816Z,42.96
2018-06-21T07:35:13.016Z,47.24
2018-06-21T07:37:44.152Z,45.55
2018-06-21T07:40:15.813Z,46.76
2018-06-21T07:42:47.412Z,46.04
2018-06-21T07:45:19.406Z,45.51
2018-06-21T07:47:50.836Z,49.71
2018-06-21T07:50:22.575Z,50.55
2018-06-21T07:52:54.131Z,51.09
2018-06-21T07:55:25.285Z,47.01
2018-06-21T07:57:56.690Z,45.08
2018-06-21T08:00:28.707Z,44.42
2018-06-21T08:03:00.473Z,42.99
2018-06-21T08:05:31.511Z,42.81
2018-06-21T08:08:06.011Z,45.77
2018-06-21T08:10:40.181Z,44.12
2018-06-21T08:13:12.127Z,41.77
2018-06-21T08:15:46.474Z,39.87
2018-06-21T08:18:19.544Z,39.16
2018-06-21T08:20:56.227Z,38.34
2018-06-21T08:23:32.581Z,39.02
2018-06-21T08:26:05.343Z,36.83
2018-06-21T08:28:38.231Z,40.90
2018-06-21T08:31:10.000Z,40.11
2018-06-21T08:33:41.748Z,37.11
2018-06-21T08:36:13.733Z,37.66
2018-06-21T08:38:45.726Z,37.77
2018-06-21T08:41:17.068Z,37.83
2018-06-21T08:43:49.735Z,38.07
2018-06-21T08:46:22.822Z,35.31
2018-06-21T08:48:55.343Z,36.86
2018-06-21T08:51:28.287Z,36.37
2018-06-21T08:53:59.630Z,39.73
2018-06-21T08:56:31.927Z,36.31
2018-06-21T08:59:04.752Z,34.74
2018-06-21T09:01:37.281Z,33.08
2018-06-21T09:04:08.873Z,31.34
2018-06-21T09:06:40.100Z,31.32
2018-06-21T09:09:11.686Z,33.00
2018-06-21T09:11:43.574Z,33.31
2018-06-21T09:14:15.097Z,33.79
2018-06-21T09:16:47.874Z,36.81
2018-06-21T09:19:20.354Z,33.49
2018-06-21T09:21:51.722Z,32.85
2018-06-21T09:24:23.743Z,31.57
2018-06-21T09:26:57.026Z,30.95
2018-06-21T09:29:28.789Z,31.93
2018-06-21T09:32:02.186Z,33.83
2018-06-21T09:34:35.695Z,32.66
2018-06-21T09:37:07.939Z,31.88
2018-06-21T09:39:45.511Z,39.09
2018-06-21T09:42:23.173Z,37.70
2018-06-21T09:44:59.712Z,34.09
2018-06-21T09:47:37.397Z,34.50
2018-06-21T09:50:18.079Z,33.91
2018-06-21T09:52:53.006Z,37.21
2018-06-21T09:55:27.407Z,33.15
2018-06-21T09:57:59.645Z,30.53
2018-06-21T10:00:36.262Z,29.64
2018-06-21T10:03:07.839Z,29.40
2018-06-21T10:05:40.582Z,29.18
2018-06-21T10:08:12.821Z,28.09
2018-06-21T10:10:44.296Z,28.21
2018-06-21T10:13:16.112Z,29.83
2018-06-21T10:15:47.867Z,32.63
2018-06-21T10:18:20.425Z,31.16
2018-06-21T10:20:53.158Z,28.44
2018-06-21T10:23:25.554Z,28.12
2018-06-21T10:25:57.273Z,28.04
2018-06-21T10:28:27.969Z,26.73
2018-06-21T10:31:00.433Z,25.92
2018-06-21T10:33:31.705Z,24.99
2018-06-21T10:36:06.134Z,24.75
2018-06-21T10:38:44.379Z,25.01
2018-06-21T10:41:15.685Z,24.52
2018-06-21T10:43:47.371Z,25.67
2018-06-21T10:46:20.130Z,31.17
2018-06-21T10:48:53.034Z,30.95
2018-06-21T10:51:25.173Z,30.34
2018-06-21T10:53:55.812Z,29.29
2018-06-21T10:56:27.068Z,29.76
2018-06-21T10:58:58.963Z,29.19
2018-06-21T11:01:30.920Z,26.97
2018-06-21T11:04:02.373Z,26.20
2018-06-21T11:06:38.659Z,26.45
2018-06-21T11:09:10.743Z,25.27
2018-06-21T11:11:43.870Z,25.49
2018-06-21T11:14:15.325Z,24.88
2018-06-21T11:16:46.403Z,26.00
2018-06-21T11:19:17.807Z,26.71
2018-06-21T11:21:49.284Z,26.88
2018-06-21T11:24:21.268Z,26.15
2018-06-21T11:26:56.860Z,25.25
2018-06-21T11:29:28.125Z,25.09
2018-06-21T11:31:59.578Z,27.16
2018-06-21T11:34:30.838Z,34.71
2018-06-21T11:37:04.464Z,38.53
2018-06-21T11:39:35.995Z,34.60
2018-06-21T11:42:07.079Z,33.05
2018-06-21T11:44:38.686Z,33.01
2018-06-21T11:47:10.745Z,39.69
2018-06-21T11:49:42.163Z,43.69
2018-06-21T11:52:14.403Z,46.16
2018-06-21T11:54:46.663Z,47.46
2018-06-21T11:57:17.753Z,49.01
2018-06-21T11:59:49.224Z,46.07
2018-06-21T12:02:21.709Z,46.98
2018-06-21T12:04:53.057Z,47.33
2018-06-21T12:07:28.115Z,47.46
2018-06-21T12:10:00.482Z,46.63
2018-06-21T12:12:32.661Z,47.01
2018-06-21T12:15:03.287Z,45.76
2018-06-21T12:17:34.523Z,43.87
2018-06-21T12:20:05.706Z,46.56
2018-06-21T12:22:36.961Z,40.52
2018-06-21T12:25:08.933Z,41.06
2018-06-21T12:27:40.804Z,44.17
2018-06-21T12:30:11.967Z,43.17
2018-06-21T12:32:43.329Z,47.37
2018-06-21T12:35:16.017Z,49.20
2018-06-21T12:37:47.178Z,51.21
2018-06-21T12:40:18.561Z,52.04
2018-06-21T12:42:52.681Z,53.01
2018-06-21T12:45:24.000Z,55.70
2018-06-21T12:47:56.402Z,56.59
2018-06-21T12:50:27.526Z,57.32
2018-06-21T12:52:58.855Z,54.91
2018-06-21T12:55:33.806Z,54.72
2018-06-21T12:58:05.897Z,54.17
2018-06-21T13:00:38.568Z,53.57
2018-06-21T13:03:11.267Z,53.02
2018-06-21T13:05:44.070Z,52.73
2018-06-21T13:08:25.947Z,51.58
2018-06-21T13:11:07.603Z,49.47
2018-06-21T13:13:39.535Z,48.49
2018-06-21T13:16:11.941Z,47.21
2018-06-21T13:18:43.757Z,46.43
2018-06-21T13:21:17.267Z,46.83
2018-06-21T13:23:48.740Z,47.66
2018-06-21T13:26:20.547Z,48.31
2018-06-21T13:28:52.897Z,48.96
2018-06-21T13:31:24.358Z,49.12
2018-06-21T13:33:55.872Z,48.90
2018-06-21T13:36:27.437Z,49.43
2018-06-21T13:38:59.370Z,50.69
2018-06-21T13:41:30.612Z,51.54
2018-06-21T13:44:01.826Z,51.63
2018-06-21T13:46:34.534Z,52.68
2018-06-21T13:49:06.079Z,52.81
2018-06-21T13:51:37.897Z,54.03
2018-06-21T13:54:10.771Z,54.21
2018-06-21T13:56:43.767Z,55.12
2018-06-21T13:59:15.377Z,54.82
2018-06-21T14:01:47.292Z,55.27
2018-06-21T14:04:19.067Z,55.32
2018-06-21T14:06:50.946Z,55.37
2018-06-21T14:09:22.916Z,56.45
2018-06-21T14:11:55.127Z,57.16
2018-06-21T14:14:26.475Z,56.54
2018-06-21T14:16:57.935Z,57.13
2018-06-21T14:19:29.635Z,56.88
2018-06-21T14:22:00.994Z,56.22
2018-06-21T14:24:34.768Z,56.90
2018-06-21T14:27:06.068Z,56.71
2018-06-21T14:29:37.555Z,56.54
2018-06-21T14:32:09.414Z,56.59
2018-06-21T14:34:45.527Z,55.44
2018-06-21T14:37:18.421Z,55.56
2018-06-21T14:39:50.627Z,55.69
2018-06-21T14:42:22.711Z,53.39
2018-06-21T14:44:54.536Z,53.04
2018-06-21T14:47:26.327Z,52.98
2018-06-21T14:49:58.652Z,53.77
2018-06-21T14:52:30.354Z,53.34
2018-06-21T14:55:01.077Z,53.70
2018-06-21T14:57:33.900Z,58.16
2018-06-21T15:00:06.987Z,56.53
2018-06-21T15:02:38.632Z,56.41
2018-06-21T15:05:10.099Z,56.50
2018-06-21T15:07:41.469Z,57.87
2018-06-21T15:10:13.672Z,57.60
2018-06-21T15:12:45.386Z,56.69
2018-06-21T15:15:18.226Z,56.16
2018-06-21T15:17:49.985Z,55.75
2018-06-21T15:20:21.874Z,57.47
2018-06-21T15:22:53.723Z,57.45
2018-06-21T15:25:25.114Z,60.31
2018-06-21T15:27:59.639Z,60.73
2018-06-21T15:30:32.467Z,60.23
2018-06-21T15:33:03.557Z,62.45
2018-06-21T15:35:36.598Z,61.51
2018-06-21T15:38:09.935Z,61.90
2018-06-21T15:40:41.828Z,61.86
2018-06-21T15:43:14.570Z,62.12
2018-06-21T15:45:46.471Z,61.50
2018-06-21T15:48:21.419Z,61.07
2018-06-21T15:50:54.832Z,63.27
2018-06-21T15:53:25.554Z,63.53
2018-06-21T15:55:56.636Z,63.49
2018-06-21T15:58:28.740Z,64.26
2018-06-21T16:01:00.432Z,64.69
2018-06-21T16:03:32.154Z,64.75
2018-06-21T16:06:04.278Z,65.53
2018-06-21T16:08:35.840Z,63.51
2018-06-21T16:11:06.365Z,62.98
2018-06-21T16:13:39.349Z,63.71
2018-06-21T16:16:12.175Z,63.12
2018-06-21T16:18:43.092Z,63.53
2018-06-21T16:21:14.117Z,63.97
2018-06-21T16:23:44.966Z,62.62
2018-06-21T16:26:16.490Z,63.19
2018-06-21T16:28:49.733Z,63.90
2018-06-21T16:31:21.155Z,62.69
2018-06-21T16:33:53.220Z,64.47
2018-06-21T16:36:24.532Z,64.34
2018-06-21T16:38:56.883Z,65.61
2018-06-21T16:41:28.356Z,65.49
2018-06-21T16:43:59.432Z,65.52
2018-06-21T16:46:31.129Z,65.00
2018-06-21T16:49:02.827Z,65.86
2018-06-21T16:51:35.439Z,65.56
2018-06-21T16:54:06.831Z,66.31
2018-06-21T16:56:38.475Z,67.12
2018-06-21T16:59:08.964Z,66.86
2018-06-21T17:01:40.222Z,66.52
2018-06-21T17:04:11.665Z,66.78
2018-06-21T17:06:44.393Z,66.77
2018-06-21T17:09:16.141Z,67.07
2018-06-21T17:11:47.396Z,67.24
2018-06-21T17:14:18.776Z,67.47
2018-06-21T17:16:50.486Z,67.17
2018-06-21T17:19:23.221Z,67.08
2018-06-21T17:21:54.691Z,67.22
2018-06-21T17:24:27.803Z,67.93
2018-06-21T17:26:58.714Z,67.35
2018-06-21T17:29:30.094Z,66.78
2018-06-21T17:32:01.569Z,65.62
2018-06-21T17:34:33.995Z,64.60
2018-06-21T17:37:05.709Z,64.76
2018-06-21T17:39:39.132Z,64.91
2018-06-21T17:42:10.640Z,66.50
2018-06-21T17:44:42.751Z,66.19
2018-06-21T17:47:13.871Z,65.71
2018-06-21T17:49:46.060Z,64.87
2018-06-21T17:52:17.403Z,65.36
2018-06-21T17:54:48.878Z,66.77
2018-06-21T17:57:23.791Z,67.18
2018-06-21T17:59:55.383Z,68.76
2018-06-21T18:02:27.412Z,68.84
2018-06-21T18:04:59.350Z,69.23
2018-06-21T18:07:30.923Z,69.04
2018-06-21T18:10:02.772Z,69.42
2018-06-21T18:12:35.943Z,69.26
2018-06-21T18:15:07.976Z,69.90
2018-06-21T18:17:39.768Z,69.05
2018-06-21T18:20:13.287Z,68.70
2018-06-21T18:22:45.927Z,68.86
2018-06-21T18:25:20.568Z,69.01
2018-06-21T18:27:55.519Z,69.05
2018-06-21T18:30:27.930Z,69.46
2018-06-21T18:33:00.636Z,69.79
2018-06-21T18:35:32.961Z,69.94
2018-06-21T18:38:05.486Z,69.72
2018-06-21T18:40:38.087Z,69.37
2018-06-21T18:43:10.147Z,68.27
2018-06-21T18:45:42.580Z,68.72
2018-06-21T18:48:15.322Z,68.37
2018-06-21T18:50:48.607Z,68.18
2018-06-21T18:53:21.600Z,68.41
2018-06-21T18:55:54.853Z,68.96
2018-06-21T18:58:27.373Z,69.48
2018-06-21T19:00:59.196Z,69.59
2018-06-21T19:03:31.702Z,69.66
2018-06-21T19:06:04.976Z,68.53
2018-06-21T19:08:43.422Z,68.89
2018-06-21T19:11:21.026Z,68.81
2018-06-21T19:13:53.522Z,68.71
2018-06-21T19:16:26.848Z,68.57
2018-06-21T19:19:00.526Z,68.93
2018-06-21T19:21:33.551Z,68.31
2018-06-21T19:24:06.276Z,68.24
2018-06-21T19:26:40.246Z,68.51
2018-06-21T19:29:17.840Z,68.91
2018-06-21T19:31:54.555Z,69.48
2018-06-21T19:34:30.775Z,70.16
2018-06-21T19:37:05.527Z,69.74
2018-06-21T19:39:46.255Z,70.24
2018-06-21T19:42:20.588Z,70.13
2018-06-21T19:44:53.727Z,69.54
2018-06-21T19:47:31.589Z,69.05
2018-06-21T19:50:05.276Z,68.72
2018-06-21T19:52:38.679Z,68.93
2018-06-21T19:55:14.535Z,69.09
2018-06-21T19:57:47.967Z,69.67
2018-06-21T20:00:37.087Z,69.45
2018-06-21T20:03:21.204Z,70.04
2018-06-21T20:05:57.705Z,69.54
2018-06-21T20:08:32.123Z,70.36
2018-06-21T20:11:11.071Z,70.26
2018-06-21T20:13:51.958Z,71.10
2018-06-21T20:16:28.777Z,71.73
2018-06-21T20:19:08.988Z,72.06
2018-06-21T20:21:43.947Z,72.58
2018-06-21T20:24:21.594Z,72.81
2018-06-21T20:26:59.580Z,72.46
2018-06-21T20:29:33.281Z,72.84
2018-06-21T20:32:07.179Z,72.42
2018-06-21T20:34:47.242Z,72.63
2018-06-21T20:37:26.226Z,73.34
2018-06-21T20:40:05.972Z,73.66
2018-06-21T20:42:45.271Z,73.56
2018-06-21T20:45:25.558Z,73.65
2018-06-21T20:48:04.529Z,72.62
2018-06-21T20:50:44.385Z,72.45
2018-06-21T20:53:20.065Z,72.71
2018-06-21T20:55:53.703Z,73.02
2018-06-21T20:58:29.112Z,72.85
2018-06-21T21:01:05.092Z,73.69
2018-06-21T21:03:38.970Z,74.41
2018-06-21T21:06:16.420Z,74.16
2018-06-21T21:08:53.356Z,74.32
2018-06-21T21:11:28.964Z,74.96
2018-06-21T21:14:03.681Z,75.02
2018-06-21T21:16:38.612Z,75.23
2018-06-21T21:19:12.328Z,75.89
2018-06-21T21:21:51.895Z,76.09
2018-06-21T21:24:25.622Z,76.15
2018-06-21T21:26:57.193Z,75.54
2018-06-21T21:29:29.165Z,76.19
2018-06-21T21:32:00.600Z,76.32
2018-06-21T21:34:32.646Z,76.31
2018-06-21T21:37:05.266Z,76.51
2018-06-21T21:39:36.866Z,76.32
2018-06-21T21:42:09.468Z,76.47
2018-06-21T21:44:41.137Z,75.92
2018-06-21T21:47:12.712Z,75.97
2018-06-21T21:49:44.426Z,76.38
2018-06-21T21:52:16.508Z,76.46
2018-06-21T21:54:47.833Z,76.49
2018-06-21T21:57:19.997Z,76.37
2018-06-21T21:59:51.604Z,77.37
2018-06-21T22:02:22.388Z,78.07
2018-06-21T22:04:54.935Z,77.99
2018-06-21T22:07:27.681Z,78.34
2018-06-21T22:10:00.704Z,77.74
2018-06-21T22:12:33.279Z,78.19
2018-06-21T22:15:06.308Z,78.09
2018-06-21T22:17:37.797Z,78.54
2018-06-21T22:20:09.677Z,78.68
2018-06-21T22:22:41.589Z,79.44
2018-06-21T22:25:13.610Z,79.79
2018-06-21T22:27:45.388Z,81.22
2018-06-21T22:30:16.846Z,81.53
2018-06-21T22:32:48.157Z,81.26
2018-06-21T22:35:19.931Z,81.29
2018-06-21T22:37:51.765Z,80.99
2018-06-21T22:40:24.306Z,80.85
2018-06-21T22:42:55.086Z,80.43
2018-06-21T22:45:27.417Z,80.52
2018-06-21T22:47:58.826Z,80.47
2018-06-21T22:50:30.089Z,80.52
2018-06-21T22:53:02.551Z,80.47
2018-06-21T22:55:34.641Z,80.38
2018-06-21T22:58:06.931Z,80.83
2018-06-21T23:00:38.775Z,80.83
2018-06-21T23:03:10.100Z,80.68
2018-06-21T23:05:41.252Z,80.73
2018-06-21T23:08:13.017Z,80.43
2018-06-21T23:10:44.028Z,80.46
2018-06-21T23:13:14.878Z,81.38
2018-06-21T23:15:46.141Z,81.37
2018-06-21T23:18:32.193Z,81.62
2018-06-21T23:21:03.393Z,81.79
2018-06-21T23:23:34.473Z,81.51
2018-06-21T23:26:05.702Z,81.61
2018-06-21T23:28:37.191Z,81.28
2018-06-21T23:31:08.612Z,81.77
2018-06-21T23:33:40.902Z,81.56
2018-06-21T23:36:12.774Z,81.45
2018-06-21T23:38:44.822Z,81.55
2018-06-21T23:41:15.969Z,82.27
2018-06-21T23:43:47.169Z,82.29
2018-06-21T23:46:18.230Z,82.39
2018-06-21T23:48:49.507Z,82.76
2018-06-21T23:51:21.464Z,83.58
2018-06-21T23:53:52.568Z,84.03
2018-06-21T23:56:23.534Z,83.62
2018-06-21T23:58:54.739Z,83.47
